sensor_id;sensor_type;location;lat;lon;timestamp;P1;durP1;ratioP1;P2;durP2;ratioP2
35558;SDS011;21661;50.794;-1.066;2023-07-13T00:01:42;10.20;;;3.05;;
35558;SDS011;21661;50.794;-1.066;2023-07-13T00:04:08;14.02;;;3.30;;
35558;SDS011;21661;50.794;-1.066;2023-07-13T00:06:33;10.40;;;2.92;;
35558;SDS011;21661;50.794;-1.066;2023-07-13T00:09:00;9.63;;;4.05;;
35558;SDS011;21661;50.794;-1.066;2023-07-13T00:11:25;15.20;;;4.28;;
35558;SDS011;21661;50.794;-1.066;2023-07-13T00:13:51;7.18;;;2.90;;
35558;SDS011;21661;50.794;-1.066;2023-07-13T00:16:17;13.20;;;3.65;;
35558;SDS011;21661;50.794;-1.066;2023-07-13T00:18:43;10.80;;;3.00;;
35558;SDS011;21661;50.794;-1.066;2023-07-13T00:21:09;7.22;;;3.00;;
35558;SDS011;21661;50.794;-1.066;2023-07-13T00:23:36;11.90;;;2.95;;
35558;SDS011;21661;50.794;-1.066;2023-07-13T00:26:05;8.27;;;2.90;;
35558;SDS011;21661;50.794;-1.066;2023-07-13T00:28:32;13.20;;;3.17;;
35558;SDS011;21661;50.794;-1.066;2023-07-13T00:30:59;8.55;;;2.65;;
35558;SDS011;21661;50.794;-1.066;2023-07-13T00:33:25;13.35;;;2.97;;
35558;SDS011;21661;50.794;-1.066;2023-07-13T00:35:51;9.52;;;2.53;;
35558;SDS011;21661;50.794;-1.066;2023-07-13T00:38:18;9.93;;;2.80;;
35558;SDS011;21661;50.794;-1.066;2023-07-13T00:40:44;10.75;;;3.15;;
35558;SDS011;21661;50.794;-1.066;2023-07-13T00:43:14;8.93;;;2.70;;
35558;SDS011;21661;50.794;-1.066;2023-07-13T00:48:07;13.05;;;2.55;;
35558;SDS011;21661;50.794;-1.066;2023-07-13T00:50:36;5.15;;;2.13;;
35558;SDS011;21661;50.794;-1.066;2023-07-13T00:53:02;9.38;;;3.00;;
35558;SDS011;21661;50.794;-1.066;2023-07-13T00:55:28;5.57;;;2.40;;
35558;SDS011;21661;50.794;-1.066;2023-07-13T00:57:54;7.88;;;2.75;;
35558;SDS011;21661;50.794;-1.066;2023-07-13T01:00:20;9.27;;;2.60;;
35558;SDS011;21661;50.794;-1.066;2023-07-13T01:02:47;7.15;;;3.08;;
35558;SDS011;21661;50.794;-1.066;2023-07-13T01:05:18;7.25;;;2.85;;
35558;SDS011;21661;50.794;-1.066;2023-07-13T01:07:45;11.57;;;2.30;;
35558;SDS011;21661;50.794;-1.066;2023-07-13T01:10:25;8.80;;;2.60;;
35558;SDS011;21661;50.794;-1.066;2023-07-13T01:12:52;9.60;;;2.42;;
35558;SDS011;21661;50.794;-1.066;2023-07-13T01:18:17;14.98;;;2.50;;
35558;SDS011;21661;50.794;-1.066;2023-07-13T01:20:49;7.38;;;1.88;;
35558;SDS011;21661;50.794;-1.066;2023-07-13T01:23:22;10.40;;;2.22;;
35558;SDS011;21661;50.794;-1.066;2023-07-13T01:25:49;11.43;;;2.50;;
35558;SDS011;21661;50.794;-1.066;2023-07-13T01:28:16;8.30;;;2.55;;
35558;SDS011;21661;50.794;-1.066;2023-07-13T01:30:43;10.30;;;2.30;;
35558;SDS011;21661;50.794;-1.066;2023-07-13T01:33:11;6.30;;;2.00;;
35558;SDS011;21661;50.794;-1.066;2023-07-13T01:35:38;11.25;;;2.92;;
35558;SDS011;21661;50.794;-1.066;2023-07-13T01:38:05;6.93;;;2.22;;
35558;SDS011;21661;50.794;-1.066;2023-07-13T01:40:30;8.63;;;2.47;;
35558;SDS011;21661;50.794;-1.066;2023-07-13T01:42:57;7.82;;;2.95;;
35558;SDS011;21661;50.794;-1.066;2023-07-13T01:45:23;5.70;;;2.20;;
35558;SDS011;21661;50.794;-1.066;2023-07-13T01:47:49;7.13;;;2.85;;
35558;SDS011;21661;50.794;-1.066;2023-07-13T01:50:15;7.32;;;2.30;;
35558;SDS011;21661;50.794;-1.066;2023-07-13T01:52:41;10.60;;;2.55;;
35558;SDS011;21661;50.794;-1.066;2023-07-13T01:55:07;9.90;;;2.40;;
35558;SDS011;21661;50.794;-1.066;2023-07-13T01:57:33;8.27;;;2.50;;
35558;SDS011;21661;50.794;-1.066;2023-07-13T01:59:59;9.15;;;2.45;;
35558;SDS011;21661;50.794;-1.066;2023-07-13T02:02:26;6.68;;;2.30;;
35558;SDS011;21661;50.794;-1.066;2023-07-13T02:04:51;8.43;;;2.22;;
35558;SDS011;21661;50.794;-1.066;2023-07-13T02:07:17;8.52;;;2.40;;
35558;SDS011;21661;50.794;-1.066;2023-07-13T02:09:43;8.07;;;3.17;;
35558;SDS011;21661;50.794;-1.066;2023-07-13T02:12:08;7.65;;;2.35;;
35558;SDS011;21661;50.794;-1.066;2023-07-13T02:14:34;8.02;;;2.10;;
35558;SDS011;21661;50.794;-1.066;2023-07-13T02:17:00;9.15;;;2.15;;
35558;SDS011;21661;50.794;-1.066;2023-07-13T02:19:25;7.43;;;2.45;;
35558;SDS011;21661;50.794;-1.066;2023-07-13T02:21:51;5.22;;;1.92;;
35558;SDS011;21661;50.794;-1.066;2023-07-13T02:24:17;6.93;;;2.50;;
35558;SDS011;21661;50.794;-1.066;2023-07-13T02:26:44;8.35;;;2.25;;
35558;SDS011;21661;50.794;-1.066;2023-07-13T02:29:10;6.60;;;2.60;;
35558;SDS011;21661;50.794;-1.066;2023-07-13T02:31:35;6.00;;;1.98;;
35558;SDS011;21661;50.794;-1.066;2023-07-13T02:34:01;9.82;;;1.98;;
35558;SDS011;21661;50.794;-1.066;2023-07-13T02:36:29;7.20;;;1.75;;
35558;SDS011;21661;50.794;-1.066;2023-07-13T02:38:55;6.88;;;2.25;;
35558;SDS011;21661;50.794;-1.066;2023-07-13T02:41:20;8.57;;;2.03;;
35558;SDS011;21661;50.794;-1.066;2023-07-13T02:43:48;6.30;;;1.83;;
35558;SDS011;21661;50.794;-1.066;2023-07-13T02:46:13;5.45;;;1.98;;
35558;SDS011;21661;50.794;-1.066;2023-07-13T02:48:39;5.22;;;1.90;;
35558;SDS011;21661;50.794;-1.066;2023-07-13T02:51:05;8.35;;;2.22;;
35558;SDS011;21661;50.794;-1.066;2023-07-13T02:53:32;4.68;;;2.00;;
35558;SDS011;21661;50.794;-1.066;2023-07-13T02:55:58;5.88;;;2.05;;
35558;SDS011;21661;50.794;-1.066;2023-07-13T02:58:23;8.85;;;2.42;;
35558;SDS011;21661;50.794;-1.066;2023-07-13T03:00:49;6.38;;;1.98;;
35558;SDS011;21661;50.794;-1.066;2023-07-13T03:03:15;6.30;;;1.90;;
35558;SDS011;21661;50.794;-1.066;2023-07-13T03:05:42;6.20;;;2.63;;
35558;SDS011;21661;50.794;-1.066;2023-07-13T03:08:10;5.72;;;2.00;;
35558;SDS011;21661;50.794;-1.066;2023-07-13T03:10:36;5.15;;;2.38;;
35558;SDS011;21661;50.794;-1.066;2023-07-13T03:13:03;7.93;;;2.17;;
35558;SDS011;21661;50.794;-1.066;2023-07-13T03:15:28;5.38;;;2.25;;
35558;SDS011;21661;50.794;-1.066;2023-07-13T03:17:54;9.93;;;2.55;;
35558;SDS011;21661;50.794;-1.066;2023-07-13T03:20:20;5.55;;;2.10;;
35558;SDS011;21661;50.794;-1.066;2023-07-13T03:22:45;11.45;;;2.38;;
35558;SDS011;21661;50.794;-1.066;2023-07-13T03:25:11;6.68;;;2.13;;
35558;SDS011;21661;50.794;-1.066;2023-07-13T03:27:37;7.18;;;2.05;;
35558;SDS011;21661;50.794;-1.066;2023-07-13T03:30:03;8.68;;;2.67;;
35558;SDS011;21661;50.794;-1.066;2023-07-13T03:32:30;7.00;;;2.47;;
35558;SDS011;21661;50.794;-1.066;2023-07-13T03:34:56;5.07;;;2.00;;
35558;SDS011;21661;50.794;-1.066;2023-07-13T03:37:22;7.85;;;2.58;;
35558;SDS011;21661;50.794;-1.066;2023-07-13T03:39:47;6.95;;;2.22;;
35558;SDS011;21661;50.794;-1.066;2023-07-13T03:42:13;5.78;;;2.55;;
35558;SDS011;21661;50.794;-1.066;2023-07-13T03:44:39;5.45;;;2.22;;
35558;SDS011;21661;50.794;-1.066;2023-07-13T03:47:06;7.55;;;2.20;;
35558;SDS011;21661;50.794;-1.066;2023-07-13T03:49:34;8.55;;;2.42;;
35558;SDS011;21661;50.794;-1.066;2023-07-13T03:51:59;6.75;;;2.00;;
35558;SDS011;21661;50.794;-1.066;2023-07-13T03:54:25;8.85;;;2.33;;
35558;SDS011;21661;50.794;-1.066;2023-07-13T03:56:51;7.60;;;2.65;;
35558;SDS011;21661;50.794;-1.066;2023-07-13T03:59:17;6.65;;;2.42;;
35558;SDS011;21661;50.794;-1.066;2023-07-13T04:01:43;5.93;;;2.58;;
35558;SDS011;21661;50.794;-1.066;2023-07-13T04:04:09;6.95;;;2.25;;
35558;SDS011;21661;50.794;-1.066;2023-07-13T04:06:35;9.23;;;2.35;;
35558;SDS011;21661;50.794;-1.066;2023-07-13T04:09:02;12.88;;;2.22;;
35558;SDS011;21661;50.794;-1.066;2023-07-13T04:11:32;6.75;;;2.28;;
35558;SDS011;21661;50.794;-1.066;2023-07-13T04:13:58;7.55;;;2.42;;
35558;SDS011;21661;50.794;-1.066;2023-07-13T04:16:24;5.32;;;2.10;;
35558;SDS011;21661;50.794;-1.066;2023-07-13T04:18:50;6.28;;;2.30;;
35558;SDS011;21661;50.794;-1.066;2023-07-13T04:21:19;7.63;;;2.33;;
35558;SDS011;21661;50.794;-1.066;2023-07-13T04:23:45;5.40;;;2.40;;
35558;SDS011;21661;50.794;-1.066;2023-07-13T04:26:11;10.10;;;2.60;;
35558;SDS011;21661;50.794;-1.066;2023-07-13T04:28:37;5.22;;;2.58;;
35558;SDS011;21661;50.794;-1.066;2023-07-13T04:31:02;5.85;;;2.50;;
35558;SDS011;21661;50.794;-1.066;2023-07-13T04:33:28;13.23;;;3.28;;
35558;SDS011;21661;50.794;-1.066;2023-07-13T04:35:54;9.68;;;2.47;;
35558;SDS011;21661;50.794;-1.066;2023-07-13T04:38:25;5.90;;;2.70;;
35558;SDS011;21661;50.794;-1.066;2023-07-13T04:40:54;6.45;;;2.28;;
35558;SDS011;21661;50.794;-1.066;2023-07-13T04:43:21;9.38;;;2.72;;
35558;SDS011;21661;50.794;-1.066;2023-07-13T04:45:47;7.60;;;2.40;;
35558;SDS011;21661;50.794;-1.066;2023-07-13T04:48:12;9.40;;;2.33;;
35558;SDS011;21661;50.794;-1.066;2023-07-13T04:50:38;9.18;;;2.92;;
35558;SDS011;21661;50.794;-1.066;2023-07-13T04:53:04;8.52;;;2.67;;
35558;SDS011;21661;50.794;-1.066;2023-07-13T04:55:30;8.63;;;2.42;;
35558;SDS011;21661;50.794;-1.066;2023-07-13T04:57:57;7.55;;;2.55;;
35558;SDS011;21661;50.794;-1.066;2023-07-13T05:00:27;8.93;;;2.35;;
35558;SDS011;21661;50.794;-1.066;2023-07-13T05:02:54;9.60;;;2.40;;
35558;SDS011;21661;50.794;-1.066;2023-07-13T05:05:20;7.13;;;2.53;;
35558;SDS011;21661;50.794;-1.066;2023-07-13T05:07:46;6.25;;;2.63;;
35558;SDS011;21661;50.794;-1.066;2023-07-13T05:10:12;6.80;;;2.08;;
35558;SDS011;21661;50.794;-1.066;2023-07-13T05:12:37;7.55;;;2.03;;
35558;SDS011;21661;50.794;-1.066;2023-07-13T05:15:03;8.05;;;2.92;;
35558;SDS011;21661;50.794;-1.066;2023-07-13T05:17:29;8.50;;;2.50;;
35558;SDS011;21661;50.794;-1.066;2023-07-13T05:19:55;9.05;;;3.00;;
35558;SDS011;21661;50.794;-1.066;2023-07-13T05:22:20;9.68;;;2.70;;
35558;SDS011;21661;50.794;-1.066;2023-07-13T05:24:46;5.07;;;2.28;;
35558;SDS011;21661;50.794;-1.066;2023-07-13T05:27:12;9.60;;;2.70;;
35558;SDS011;21661;50.794;-1.066;2023-07-13T05:29:38;7.80;;;2.83;;
35558;SDS011;21661;50.794;-1.066;2023-07-13T05:32:03;9.13;;;2.30;;
35558;SDS011;21661;50.794;-1.066;2023-07-13T05:34:29;8.82;;;2.63;;
35558;SDS011;21661;50.794;-1.066;2023-07-13T05:36:55;5.70;;;2.17;;
35558;SDS011;21661;50.794;-1.066;2023-07-13T05:39:21;8.95;;;2.63;;
35558;SDS011;21661;50.794;-1.066;2023-07-13T05:41:46;6.68;;;2.65;;
35558;SDS011;21661;50.794;-1.066;2023-07-13T05:44:12;9.52;;;2.45;;
35558;SDS011;21661;50.794;-1.066;2023-07-13T05:46:37;9.13;;;2.30;;
35558;SDS011;21661;50.794;-1.066;2023-07-13T05:49:03;10.68;;;2.60;;
35558;SDS011;21661;50.794;-1.066;2023-07-13T05:51:29;8.05;;;3.20;;
35558;SDS011;21661;50.794;-1.066;2023-07-13T05:53:55;7.88;;;2.65;;
35558;SDS011;21661;50.794;-1.066;2023-07-13T05:56:20;8.95;;;2.42;;
35558;SDS011;21661;50.794;-1.066;2023-07-13T05:58:47;7.15;;;2.47;;
35558;SDS011;21661;50.794;-1.066;2023-07-13T06:01:14;7.85;;;2.90;;
35558;SDS011;21661;50.794;-1.066;2023-07-13T06:03:41;8.10;;;2.45;;
35558;SDS011;21661;50.794;-1.066;2023-07-13T06:06:07;9.38;;;2.30;;
35558;SDS011;21661;50.794;-1.066;2023-07-13T06:08:34;8.85;;;2.08;;
35558;SDS011;21661;50.794;-1.066;2023-07-13T06:11:12;10.10;;;2.70;;
35558;SDS011;21661;50.794;-1.066;2023-07-13T06:13:40;9.20;;;2.43;;
35558;SDS011;21661;50.794;-1.066;2023-07-13T06:16:06;8.85;;;2.88;;
35558;SDS011;21661;50.794;-1.066;2023-07-13T06:18:34;9.18;;;2.30;;
35558;SDS011;21661;50.794;-1.066;2023-07-13T06:21:01;8.45;;;2.30;;
35558;SDS011;21661;50.794;-1.066;2023-07-13T06:23:37;11.18;;;2.63;;
35558;SDS011;21661;50.794;-1.066;2023-07-13T06:26:03;10.27;;;2.80;;
35558;SDS011;21661;50.794;-1.066;2023-07-13T06:28:30;5.43;;;2.00;;
35558;SDS011;21661;50.794;-1.066;2023-07-13T06:30:56;12.90;;;2.88;;
35558;SDS011;21661;50.794;-1.066;2023-07-13T06:33:23;6.25;;;2.30;;
35558;SDS011;21661;50.794;-1.066;2023-07-13T06:35:49;5.78;;;2.20;;
35558;SDS011;21661;50.794;-1.066;2023-07-13T06:38:15;7.72;;;2.08;;
35558;SDS011;21661;50.794;-1.066;2023-07-13T06:40:40;8.02;;;2.40;;
35558;SDS011;21661;50.794;-1.066;2023-07-13T06:43:07;10.38;;;2.58;;
35558;SDS011;21661;50.794;-1.066;2023-07-13T06:45:36;5.70;;;2.05;;
35558;SDS011;21661;50.794;-1.066;2023-07-13T06:48:06;12.32;;;2.95;;
35558;SDS011;21661;50.794;-1.066;2023-07-13T06:50:33;7.75;;;2.30;;
35558;SDS011;21661;50.794;-1.066;2023-07-13T06:52:59;7.38;;;2.22;;
35558;SDS011;21661;50.794;-1.066;2023-07-13T06:55:25;7.55;;;2.17;;
35558;SDS011;21661;50.794;-1.066;2023-07-13T06:57:51;8.63;;;2.47;;
35558;SDS011;21661;50.794;-1.066;2023-07-13T07:00:16;7.28;;;2.38;;
35558;SDS011;21661;50.794;-1.066;2023-07-13T07:02:42;6.95;;;2.03;;
35558;SDS011;21661;50.794;-1.066;2023-07-13T07:05:08;6.95;;;2.28;;
35558;SDS011;21661;50.794;-1.066;2023-07-13T07:07:33;7.57;;;2.65;;
35558;SDS011;21661;50.794;-1.066;2023-07-13T07:09:59;5.32;;;1.85;;
35558;SDS011;21661;50.794;-1.066;2023-07-13T07:12:25;10.65;;;2.55;;
35558;SDS011;21661;50.794;-1.066;2023-07-13T07:14:50;9.80;;;2.13;;
35558;SDS011;21661;50.794;-1.066;2023-07-13T07:17:16;6.32;;;2.25;;
35558;SDS011;21661;50.794;-1.066;2023-07-13T07:19:42;10.25;;;2.42;;
35558;SDS011;21661;50.794;-1.066;2023-07-13T07:22:07;8.05;;;2.03;;
35558;SDS011;21661;50.794;-1.066;2023-07-13T07:24:33;8.77;;;2.05;;
35558;SDS011;21661;50.794;-1.066;2023-07-13T07:26:59;7.10;;;2.05;;
35558;SDS011;21661;50.794;-1.066;2023-07-13T07:29:24;8.98;;;2.30;;
35558;SDS011;21661;50.794;-1.066;2023-07-13T07:31:52;7.18;;;3.28;;
35558;SDS011;21661;50.794;-1.066;2023-07-13T07:34:18;9.63;;;3.10;;
35558;SDS011;21661;50.794;-1.066;2023-07-13T07:36:44;12.40;;;2.70;;
35558;SDS011;21661;50.794;-1.066;2023-07-13T07:39:10;10.18;;;3.00;;
35558;SDS011;21661;50.794;-1.066;2023-07-13T07:41:36;8.30;;;3.28;;
35558;SDS011;21661;50.794;-1.066;2023-07-13T07:44:02;7.25;;;2.30;;
35558;SDS011;21661;50.794;-1.066;2023-07-13T07:46:28;8.93;;;2.50;;
35558;SDS011;21661;50.794;-1.066;2023-07-13T07:48:55;9.52;;;3.25;;
35558;SDS011;21661;50.794;-1.066;2023-07-13T07:51:20;9.63;;;2.55;;
35558;SDS011;21661;50.794;-1.066;2023-07-13T07:53:47;13.60;;;3.28;;
35558;SDS011;21661;50.794;-1.066;2023-07-13T07:56:12;5.75;;;2.13;;
35558;SDS011;21661;50.794;-1.066;2023-07-13T07:58:39;8.65;;;2.53;;
35558;SDS011;21661;50.794;-1.066;2023-07-13T08:01:04;13.80;;;3.33;;
35558;SDS011;21661;50.794;-1.066;2023-07-13T08:03:31;12.40;;;3.10;;
35558;SDS011;21661;50.794;-1.066;2023-07-13T08:05:57;13.15;;;2.70;;
35558;SDS011;21661;50.794;-1.066;2023-07-13T08:08:22;8.98;;;2.45;;
35558;SDS011;21661;50.794;-1.066;2023-07-13T08:10:49;10.25;;;2.50;;
35558;SDS011;21661;50.794;-1.066;2023-07-13T08:13:14;9.23;;;2.70;;
35558;SDS011;21661;50.794;-1.066;2023-07-13T08:15:40;9.98;;;3.50;;
35558;SDS011;21661;50.794;-1.066;2023-07-13T08:18:06;6.40;;;2.50;;
35558;SDS011;21661;50.794;-1.066;2023-07-13T08:20:36;10.88;;;2.75;;
35558;SDS011;21661;50.794;-1.066;2023-07-13T08:23:03;7.85;;;2.33;;
35558;SDS011;21661;50.794;-1.066;2023-07-13T08:25:28;9.50;;;2.53;;
35558;SDS011;21661;50.794;-1.066;2023-07-13T08:27:54;10.18;;;2.70;;
35558;SDS011;21661;50.794;-1.066;2023-07-13T08:30:19;9.32;;;2.53;;
35558;SDS011;21661;50.794;-1.066;2023-07-13T08:32:45;9.57;;;2.47;;
35558;SDS011;21661;50.794;-1.066;2023-07-13T08:35:10;5.95;;;2.33;;
35558;SDS011;21661;50.794;-1.066;2023-07-13T08:37:36;7.68;;;1.95;;
35558;SDS011;21661;50.794;-1.066;2023-07-13T08:40:02;7.20;;;2.67;;
35558;SDS011;21661;50.794;-1.066;2023-07-13T08:42:33;8.43;;;1.95;;
35558;SDS011;21661;50.794;-1.066;2023-07-13T08:47:40;5.90;;;1.80;;
35558;SDS011;21661;50.794;-1.066;2023-07-13T08:50:14;10.18;;;1.90;;
35558;SDS011;21661;50.794;-1.066;2023-07-13T08:52:42;5.03;;;1.35;;
35558;SDS011;21661;50.794;-1.066;2023-07-13T08:55:16;7.80;;;2.25;;
35558;SDS011;21661;50.794;-1.066;2023-07-13T08:57:48;5.40;;;1.75;;
35558;SDS011;21661;50.794;-1.066;2023-07-13T09:00:19;5.82;;;1.50;;
35558;SDS011;21661;50.794;-1.066;2023-07-13T09:02:46;6.65;;;1.40;;
35558;SDS011;21661;50.794;-1.066;2023-07-13T09:10:46;9.25;;;1.75;;
35558;SDS011;21661;50.794;-1.066;2023-07-13T09:16:08;10.88;;;1.77;;
35558;SDS011;21661;50.794;-1.066;2023-07-13T09:18:41;4.07;;;1.45;;
35558;SDS011;21661;50.794;-1.066;2023-07-13T09:21:18;8.93;;;2.20;;
35558;SDS011;21661;50.794;-1.066;2023-07-13T09:23:55;8.07;;;1.60;;
35558;SDS011;21661;50.794;-1.066;2023-07-13T09:26:25;9.18;;;1.88;;
35558;SDS011;21661;50.794;-1.066;2023-07-13T09:28:57;7.45;;;1.80;;
35558;SDS011;21661;50.794;-1.066;2023-07-13T09:31:45;7.13;;;1.60;;
35558;SDS011;21661;50.794;-1.066;2023-07-13T09:34:17;8.73;;;1.60;;
35558;SDS011;21661;50.794;-1.066;2023-07-13T09:36:42;5.30;;;2.30;;
35558;SDS011;21661;50.794;-1.066;2023-07-13T09:41:47;6.88;;;1.58;;
35558;SDS011;21661;50.794;-1.066;2023-07-13T09:44:27;3.85;;;1.60;;
35558;SDS011;21661;50.794;-1.066;2023-07-13T09:46:55;7.30;;;1.63;;
35558;SDS011;21661;50.794;-1.066;2023-07-13T09:49:25;4.53;;;1.52;;
35558;SDS011;21661;50.794;-1.066;2023-07-13T09:51:57;9.23;;;1.92;;
35558;SDS011;21661;50.794;-1.066;2023-07-13T09:54:32;5.90;;;1.67;;
35558;SDS011;21661;50.794;-1.066;2023-07-13T09:56:59;3.72;;;1.48;;
35558;SDS011;21661;50.794;-1.066;2023-07-13T09:59:30;6.38;;;1.65;;
35558;SDS011;21661;50.794;-1.066;2023-07-13T10:02:22;6.78;;;1.80;;
35558;SDS011;21661;50.794;-1.066;2023-07-13T10:04:58;5.25;;;1.67;;
35558;SDS011;21661;50.794;-1.066;2023-07-13T10:07:25;4.70;;;1.63;;
35558;SDS011;21661;50.794;-1.066;2023-07-13T10:09:53;6.07;;;1.77;;
35558;SDS011;21661;50.794;-1.066;2023-07-13T10:12:19;4.25;;;1.40;;
35558;SDS011;21661;50.794;-1.066;2023-07-13T10:14:45;4.93;;;1.50;;
35558;SDS011;21661;50.794;-1.066;2023-07-13T10:17:13;8.55;;;1.75;;
35558;SDS011;21661;50.794;-1.066;2023-07-13T10:19:50;5.47;;;1.35;;
35558;SDS011;21661;50.794;-1.066;2023-07-13T10:22:24;5.82;;;1.63;;
35558;SDS011;21661;50.794;-1.066;2023-07-13T10:24:54;4.57;;;1.17;;
35558;SDS011;21661;50.794;-1.066;2023-07-13T10:27:23;6.75;;;1.42;;
35558;SDS011;21661;50.794;-1.066;2023-07-13T10:30:20;4.40;;;1.13;;
35558;SDS011;21661;50.794;-1.066;2023-07-13T10:32:50;3.95;;;1.35;;
35558;SDS011;21661;50.794;-1.066;2023-07-13T10:35:17;7.22;;;1.35;;
35558;SDS011;21661;50.794;-1.066;2023-07-13T10:40:19;7.53;;;2.00;;
35558;SDS011;21661;50.794;-1.066;2023-07-13T10:42:50;8.02;;;1.75;;
35558;SDS011;21661;50.794;-1.066;2023-07-13T10:45:20;7.05;;;1.67;;
35558;SDS011;21661;50.794;-1.066;2023-07-13T10:47:48;5.03;;;1.70;;
35558;SDS011;21661;50.794;-1.066;2023-07-13T10:50:21;5.93;;;1.77;;
35558;SDS011;21661;50.794;-1.066;2023-07-13T10:55:59;5.13;;;1.35;;
35558;SDS011;21661;50.794;-1.066;2023-07-13T10:58:40;6.97;;;1.45;;
35558;SDS011;21661;50.794;-1.066;2023-07-13T11:01:12;6.57;;;1.45;;
35558;SDS011;21661;50.794;-1.066;2023-07-13T11:06:13;2.75;;;1.50;;
35558;SDS011;21661;50.794;-1.066;2023-07-13T11:14:04;3.65;;;1.40;;
35558;SDS011;21661;50.794;-1.066;2023-07-13T11:16:50;5.82;;;1.50;;
35558;SDS011;21661;50.794;-1.066;2023-07-13T11:24:54;4.53;;;1.40;;
35558;SDS011;21661;50.794;-1.066;2023-07-13T11:27:42;4.85;;;1.83;;
35558;SDS011;21661;50.794;-1.066;2023-07-13T11:30:31;6.75;;;1.95;;
35558;SDS011;21661;50.794;-1.066;2023-07-13T11:33:07;6.93;;;1.60;;
35558;SDS011;21661;50.794;-1.066;2023-07-13T11:35:40;4.40;;;1.23;;
35558;SDS011;21661;50.794;-1.066;2023-07-13T11:38:40;6.60;;;1.70;;
35558;SDS011;21661;50.794;-1.066;2023-07-13T11:41:18;6.60;;;1.90;;
35558;SDS011;21661;50.794;-1.066;2023-07-13T11:43:50;4.68;;;1.45;;
35558;SDS011;21661;50.794;-1.066;2023-07-13T11:46:25;5.68;;;1.70;;
35558;SDS011;21661;50.794;-1.066;2023-07-13T11:48:52;4.45;;;2.45;;
35558;SDS011;21661;50.794;-1.066;2023-07-13T11:51:26;6.63;;;2.20;;
35558;SDS011;21661;50.794;-1.066;2023-07-13T11:53:56;4.68;;;1.88;;
35558;SDS011;21661;50.794;-1.066;2023-07-13T11:56:25;5.80;;;2.00;;
35558;SDS011;21661;50.794;-1.066;2023-07-13T11:58:51;4.80;;;1.77;;
35558;SDS011;21661;50.794;-1.066;2023-07-13T12:01:23;7.50;;;2.20;;
35558;SDS011;21661;50.794;-1.066;2023-07-13T12:03:51;11.75;;;2.28;;
35558;SDS011;21661;50.794;-1.066;2023-07-13T12:08:47;6.53;;;2.00;;
35558;SDS011;21661;50.794;-1.066;2023-07-13T12:11:16;5.80;;;2.28;;
35558;SDS011;21661;50.794;-1.066;2023-07-13T12:13:44;7.68;;;2.47;;
35558;SDS011;21661;50.794;-1.066;2023-07-13T12:16:33;7.53;;;2.80;;
35558;SDS011;21661;50.794;-1.066;2023-07-13T12:19:01;8.52;;;2.80;;
35558;SDS011;21661;50.794;-1.066;2023-07-13T12:21:37;9.57;;;2.70;;
35558;SDS011;21661;50.794;-1.066;2023-07-13T12:24:05;8.07;;;2.70;;
35558;SDS011;21661;50.794;-1.066;2023-07-13T12:26:40;8.65;;;2.85;;
35558;SDS011;21661;50.794;-1.066;2023-07-13T12:29:06;11.70;;;3.50;;
35558;SDS011;21661;50.794;-1.066;2023-07-13T12:31:37;7.85;;;2.70;;
35558;SDS011;21661;50.794;-1.066;2023-07-13T12:34:17;10.80;;;2.78;;
35558;SDS011;21661;50.794;-1.066;2023-07-13T12:36:49;7.15;;;2.85;;
35558;SDS011;21661;50.794;-1.066;2023-07-13T12:39:34;9.98;;;3.05;;
35558;SDS011;21661;50.794;-1.066;2023-07-13T12:45:24;10.13;;;3.15;;
35558;SDS011;21661;50.794;-1.066;2023-07-13T12:48:03;7.85;;;2.67;;
35558;SDS011;21661;50.794;-1.066;2023-07-13T12:50:40;8.52;;;3.13;;
35558;SDS011;21661;50.794;-1.066;2023-07-13T12:53:15;6.70;;;2.42;;
35558;SDS011;21661;50.794;-1.066;2023-07-13T12:55:50;8.90;;;2.50;;
35558;SDS011;21661;50.794;-1.066;2023-07-13T13:00:57;5.63;;;2.45;;
35558;SDS011;21661;50.794;-1.066;2023-07-13T13:03:29;8.48;;;2.70;;
35558;SDS011;21661;50.794;-1.066;2023-07-13T13:06:05;9.95;;;3.17;;
35558;SDS011;21661;50.794;-1.066;2023-07-13T13:08:44;9.73;;;2.65;;
35558;SDS011;21661;50.794;-1.066;2023-07-13T13:11:13;13.00;;;3.47;;
35558;SDS011;21661;50.794;-1.066;2023-07-13T13:13:43;10.43;;;2.80;;
35558;SDS011;21661;50.794;-1.066;2023-07-13T13:16:23;9.57;;;3.17;;
35558;SDS011;21661;50.794;-1.066;2023-07-13T13:18:52;10.88;;;3.33;;
35558;SDS011;21661;50.794;-1.066;2023-07-13T13:21:19;9.07;;;3.08;;
35558;SDS011;21661;50.794;-1.066;2023-07-13T13:23:48;9.40;;;3.42;;
35558;SDS011;21661;50.794;-1.066;2023-07-13T13:26:16;12.15;;;2.90;;
35558;SDS011;21661;50.794;-1.066;2023-07-13T13:28:42;7.85;;;3.47;;
35558;SDS011;21661;50.794;-1.066;2023-07-13T13:31:09;7.50;;;2.63;;
35558;SDS011;21661;50.794;-1.066;2023-07-13T13:33:38;8.40;;;2.83;;
35558;SDS011;21661;50.794;-1.066;2023-07-13T13:36:19;9.05;;;2.47;;
35558;SDS011;21661;50.794;-1.066;2023-07-13T13:38:47;10.73;;;3.17;;
35558;SDS011;21661;50.794;-1.066;2023-07-13T13:41:14;6.30;;;2.22;;
35558;SDS011;21661;50.794;-1.066;2023-07-13T13:43:40;11.52;;;2.78;;
35558;SDS011;21661;50.794;-1.066;2023-07-13T13:48:42;8.65;;;2.13;;
35558;SDS011;21661;50.794;-1.066;2023-07-13T13:51:28;9.05;;;2.55;;
35558;SDS011;21661;50.794;-1.066;2023-07-13T13:53:54;8.85;;;2.45;;
35558;SDS011;21661;50.794;-1.066;2023-07-13T13:56:20;8.32;;;2.53;;
35558;SDS011;21661;50.794;-1.066;2023-07-13T13:58:46;9.15;;;2.40;;
35558;SDS011;21661;50.794;-1.066;2023-07-13T14:01:19;8.70;;;2.45;;
35558;SDS011;21661;50.794;-1.066;2023-07-13T14:03:49;8.68;;;2.05;;
35558;SDS011;21661;50.794;-1.066;2023-07-13T14:06:16;8.35;;;2.63;;
35558;SDS011;21661;50.794;-1.066;2023-07-13T14:08:42;8.18;;;2.42;;
35558;SDS011;21661;50.794;-1.066;2023-07-13T14:11:12;9.90;;;2.70;;
35558;SDS011;21661;50.794;-1.066;2023-07-13T14:16:17;7.85;;;1.98;;
35558;SDS011;21661;50.794;-1.066;2023-07-13T14:18:44;7.50;;;2.65;;
35558;SDS011;21661;50.794;-1.066;2023-07-13T14:21:14;7.75;;;2.13;;
35558;SDS011;21661;50.794;-1.066;2023-07-13T14:23:44;9.85;;;2.25;;
35558;SDS011;21661;50.794;-1.066;2023-07-13T14:26:16;6.35;;;2.10;;
35558;SDS011;21661;50.794;-1.066;2023-07-13T14:28:45;9.63;;;2.50;;
35558;SDS011;21661;50.794;-1.066;2023-07-13T14:31:14;7.78;;;2.25;;
35558;SDS011;21661;50.794;-1.066;2023-07-13T14:33:41;7.50;;;2.05;;
35558;SDS011;21661;50.794;-1.066;2023-07-13T14:36:16;10.98;;;2.80;;
35558;SDS011;21661;50.794;-1.066;2023-07-13T14:38:53;8.05;;;2.45;;
35558;SDS011;21661;50.794;-1.066;2023-07-13T14:41:19;6.43;;;2.13;;
35558;SDS011;21661;50.794;-1.066;2023-07-13T14:43:45;7.32;;;2.15;;
35558;SDS011;21661;50.794;-1.066;2023-07-13T14:46:30;7.05;;;2.38;;
35558;SDS011;21661;50.794;-1.066;2023-07-13T14:49:09;5.78;;;2.10;;
35558;SDS011;21661;50.794;-1.066;2023-07-13T14:52:01;7.95;;;2.70;;
35558;SDS011;21661;50.794;-1.066;2023-07-13T14:54:43;10.77;;;3.03;;
35558;SDS011;21661;50.794;-1.066;2023-07-13T14:57:11;7.07;;;2.40;;
35558;SDS011;21661;50.794;-1.066;2023-07-13T14:59:44;6.32;;;1.88;;
35558;SDS011;21661;50.794;-1.066;2023-07-13T15:04:57;6.90;;;2.20;;
35558;SDS011;21661;50.794;-1.066;2023-07-13T15:07:23;9.57;;;2.47;;
35558;SDS011;21661;50.794;-1.066;2023-07-13T15:09:49;9.80;;;2.58;;
35558;SDS011;21661;50.794;-1.066;2023-07-13T15:12:16;7.47;;;2.95;;
35558;SDS011;21661;50.794;-1.066;2023-07-13T15:14:42;9.15;;;2.75;;
35558;SDS011;21661;50.794;-1.066;2023-07-13T15:20:49;8.20;;;2.20;;
35558;SDS011;21661;50.794;-1.066;2023-07-13T15:22:52;6.95;;;1.83;;
35558;SDS011;21661;50.794;-1.066;2023-07-13T15:25:19;6.65;;;2.17;;
35558;SDS011;21661;50.794;-1.066;2023-07-13T15:27:46;4.82;;;1.75;;
35558;SDS011;21661;50.794;-1.066;2023-07-13T15:30:12;9.05;;;2.30;;
35558;SDS011;21661;50.794;-1.066;2023-07-13T15:32:41;5.05;;;1.65;;
35558;SDS011;21661;50.794;-1.066;2023-07-13T15:35:18;7.50;;;1.88;;
35558;SDS011;21661;50.794;-1.066;2023-07-13T15:37:47;7.65;;;2.08;;
35558;SDS011;21661;50.794;-1.066;2023-07-13T15:40:13;9.20;;;2.85;;